Time;durP1;ratioP1;P1;durP2;ratioP2;P2;SDS_P1;SDS_P2;PMS_P1;PMS_P2;Temp;Humidity;BMP_temperature;BMP_pressure;BME280_temperature;BME280_humidity;BME280_pressure;Samples;Min_cycle;Max_cycle;Signal;HPM_P1;HPM_P2
2023/08/20 00:00:26;;;;;;;8.98;3.90;;;;;;;19.16;89.19;101930.66;5114806;28;20501;-65
2023/08/20 00:03:02;;;;;;;11.50;4.13;;;;;;;19.10;89.20;101933.88;5114709;28;20094;-66
2023/08/20 00:05:30;;;;;;;8.35;4.15;;;;;;;19.06;89.31;101930.56;5114682;28;20389;-66
2023/08/20 00:07:56;;;;;;;8.52;4.00;;;;;;;19.00;89.60;101919.41;5114783;28;20426;-65
2023/08/20 00:10:21;;;;;;;8.93;4.30;;;;;;;19.14;89.13;101926.38;5115404;28;20107;-66
2023/08/20 00:12:47;;;;;;;11.80;4.40;;;;;;;19.03;89.51;101924.56;5116123;28;20028;-66
2023/08/20 00:15:12;;;;;;;6.65;4.10;;;;;;;18.99;89.58;101920.41;5115716;28;20493;-65
2023/08/20 00:17:42;;;;;;;8.95;4.40;;;;;;;18.87;90.58;101916.00;5114733;28;20027;-66
2023/08/20 00:20:16;;;;;;;7.22;4.32;;;;;;;18.90;90.67;101911.22;5114637;28;20058;-65
2023/08/20 00:22:44;;;;;;;8.50;4.18;;;;;;;18.90;90.46;101911.22;5114473;28;20543;-65
2023/08/20 00:25:11;;;;;;;7.25;4.15;;;;;;;18.90;90.60;101910.38;5115220;28;20043;-66
2023/08/20 00:27:36;;;;;;;8.52;4.22;;;;;;;18.84;90.53;101917.97;5097767;28;20035;-65
2023/08/20 00:30:03;;;;;;;9.00;4.32;;;;;;;18.78;90.73;101914.94;5115466;28;20072;-65
2023/08/20 00:32:29;;;;;;;7.38;3.90;;;;;;;18.59;91.82;101924.47;5115274;28;20100;-65
2023/08/20 00:34:54;;;;;;;8.32;4.15;;;;;;;18.69;91.34;101921.03;5115449;28;20016;-65
2023/08/20 00:37:22;;;;;;;8.73;4.13;;;;;;;18.78;91.24;101926.56;5114370;28;20035;-65
2023/08/20 00:39:47;;;;;;;8.52;4.20;;;;;;;18.75;91.16;101940.28;5113781;28;20034;-66
2023/08/20 00:42:15;;;;;;;8.52;3.90;;;;;;;18.81;91.33;101947.88;5114208;28;20462;-65
2023/08/20 00:44:44;;;;;;;9.25;3.33;;;;;;;18.83;91.00;101947.75;5114487;28;20028;-65
2023/08/20 00:47:10;;;;;;;9.80;3.83;;;;;;;18.75;91.36;101961.00;5115380;28;20031;-65
2023/08/20 00:49:35;;;;;;;9.73;4.78;;;;;;;18.78;91.32;101961.59;5115317;28;20472;-65
2023/08/20 00:52:02;;;;;;;8.90;3.90;;;;;;;18.74;91.80;101964.69;5114057;28;20026;-65
2023/08/20 00:54:29;;;;;;;10.60;4.13;;;;;;;18.66;92.44;101956.31;5114682;28;20371;-65
2023/08/20 00:56:55;;;;;;;7.43;3.83;;;;;;;18.63;92.51;101946.63;5114018;28;20020;-65
2023/08/20 00:59:21;;;;;;;10.07;4.35;;;;;;;18.67;92.59;101975.03;5115053;28;20441;-65
2023/08/20 01:01:46;;;;;;;6.88;3.40;;;;;;;18.65;92.30;101970.75;5113556;28;20123;-65
2023/08/20 01:04:12;;;;;;;9.07;4.35;;;;;;;18.67;92.35;101974.19;5113655;28;20020;-65
2023/08/20 01:06:56;;;;;;;12.50;3.97;;;;;;;18.77;92.42;101986.84;5115237;28;20029;-65
2023/08/20 01:09:40;;;;;;;7.95;4.03;;;;;;;18.87;92.29;102003.13;5114360;28;20405;-65
2023/08/20 01:12:06;;;;;;;9.07;4.00;;;;;;;18.80;92.28;101997.38;5114945;28;20479;-65
2023/08/20 01:14:34;;;;;;;9.35;3.75;;;;;;;18.87;91.77;102002.28;5113244;28;20034;-65
2023/08/20 01:16:59;;;;;;;10.48;3.97;;;;;;;18.78;91.97;102002.03;5114890;28;20016;-65
2023/08/20 01:19:25;;;;;;;10.18;3.80;;;;;;;18.87;92.72;102003.13;5113389;28;20038;-65
2023/08/20 01:22:14;;;;;;;6.90;3.65;;;;;;;18.91;92.77;101991.13;5114747;28;20484;-65
2023/08/20 01:25:00;;;;;;;10.18;3.92;;;;;;;18.93;92.51;101986.47;5112788;28;20540;-65
2023/08/20 01:27:28;;;;;;;9.25;4.15;;;;;;;18.88;93.01;101988.66;5114596;27;20016;-65
2023/08/20 01:29:55;;;;;;;8.32;3.75;;;;;;;18.99;92.45;101990.50;5112956;28;20031;-65
2023/08/20 01:32:22;;;;;;;10.80;3.90;;;;;;;18.98;92.12;101988.81;5114455;28;20031;-65
2023/08/20 01:34:48;;;;;;;6.13;3.45;;;;;;;18.95;92.90;101980.97;5114377;28;20023;-65
2023/08/20 01:37:14;;;;;;;7.63;3.65;;;;;;;18.87;93.23;101978.03;5114341;28;20499;-65
2023/08/20 01:39:39;;;;;;;10.23;4.05;;;;;;;19.04;92.85;101985.63;5114104;28;20024;-65
2023/08/20 01:42:06;;;;;;;7.95;3.40;;;;;;;19.02;93.13;101987.56;5114366;28;20051;-65
2023/08/20 01:44:31;;;;;;;7.95;4.00;;;;;;;19.01;93.26;101988.56;5113912;28;20077;-65
2023/08/20 01:46:59;;;;;;;8.13;3.72;;;;;;;18.99;93.21;101994.06;5113037;28;20023;-65
2023/08/20 01:49:24;;;;;;;7.55;3.80;;;;;;;19.05;92.82;101990.00;5113832;28;20032;-65
2023/08/20 01:51:50;;;;;;;11.32;4.05;;;;;;;19.12;93.48;101983.16;5112880;28;20058;-65
2023/08/20 01:54:15;;;;;;;13.88;4.30;;;;;;;19.08;93.01;101991.59;5113435;28;20015;-66
2023/08/20 01:56:40;;;;;;;9.52;4.43;;;;;;;19.08;93.32;101997.84;5114027;28;20046;-66
2023/08/20 01:59:06;;;;;;;7.65;3.65;;;;;;;19.12;91.14;102003.84;5112534;28;20020;-66
2023/08/20 02:01:31;;;;;;;7.45;3.42;;;;;;;19.14;91.77;102005.44;5113947;28;20027;-66
2023/08/20 02:03:56;;;;;;;7.13;3.55;;;;;;;19.15;91.09;102009.00;5112474;28;20027;-66
2023/08/20 02:06:24;;;;;;;10.25;3.95;;;;;;;19.06;90.17;102010.63;5113763;28;20038;-65
2023/08/20 02:08:49;;;;;;;10.48;3.70;;;;;;;19.11;90.57;102008.41;5111837;28;20023;-65
2023/08/20 02:11:15;;;;;;;8.93;3.85;;;;;;;19.11;91.83;102007.53;5112381;28;20071;-65
2023/08/20 02:13:40;;;;;;;8.70;3.60;;;;;;;19.20;91.37;102018.44;5111981;28;20504;-65
2023/08/20 02:16:06;;;;;;;8.07;3.50;;;;;;;19.15;92.02;102012.56;5113764;28;20051;-66
2023/08/20 02:18:34;;;;;;;9.07;3.78;;;;;;;19.18;91.23;102019.56;5112232;28;20024;-65
2023/08/20 02:21:00;;;;;;;8.70;4.05;;;;;;;19.17;91.36;102025.91;5113508;28;20023;-66
2023/08/20 02:23:27;;;;;;;10.43;4.03;;;;;;;19.14;92.11;102020.78;5112276;28;20035;-66
2023/08/20 02:25:53;;;;;;;7.55;3.67;;;;;;;19.09;92.11;102018.47;5094837;28;20059;-65
2023/08/20 02:28:18;;;;;;;8.43;4.00;;;;;;;19.12;91.58;102022.72;5113215;28;20050;-65
2023/08/20 02:30:46;;;;;;;8.82;4.22;;;;;;;19.12;91.99;102023.63;5112034;28;20096;-65
2023/08/20 02:33:12;;;;;;;7.03;3.67;;;;;;;19.12;92.39;102018.22;5111879;28;20478;-65
2023/08/20 02:35:38;;;;;;;5.80;3.75;;;;;;;19.06;92.64;102010.63;5113372;28;20039;-65
2023/08/20 02:38:04;;;;;;;10.48;4.07;;;;;;;19.06;92.21;102006.09;5111993;28;20386;-66
2023/08/20 02:40:29;;;;;;;8.40;4.25;;;;;;;18.96;92.29;101990.75;5112678;28;20106;-66
2023/08/20 02:42:54;;;;;;;8.43;4.20;;;;;;;19.00;92.66;102013.78;5112870;27;20065;-66
2023/08/20 02:45:20;;;;;;;8.75;3.85;;;;;;;18.87;93.05;102003.13;5111594;28;20023;-65
2023/08/20 02:47:45;;;;;;;11.25;4.07;;;;;;;18.84;92.92;102008.78;5113199;28;20475;-65
2023/08/20 02:50:11;;;;;;;7.70;3.63;;;;;;;18.77;93.53;102005.72;5112670;28;20050;-65
2023/08/20 02:52:38;;;;;;;9.00;3.97;;;;;;;18.73;93.18;102003.34;5113249;28;20378;-66
2023/08/20 02:55:04;;;;;;;8.05;3.90;;;;;;;18.59;93.81;102009.84;5112297;28;20111;-65
2023/08/20 02:57:32;;;;;;;9.70;4.18;;;;;;;18.60;94.02;102008.84;5112685;28;20203;-65
2023/08/20 02:59:57;;;;;;;8.07;3.65;;;;;;;18.54;93.87;102004.78;5112648;28;20023;-65
2023/08/20 03:02:23;;;;;;;6.80;3.88;;;;;;;18.50;93.81;102000.63;5112680;28;20020;-65
2023/08/20 03:04:48;;;;;;;10.23;4.00;;;;;;;18.44;93.95;102001.09;5112548;28;20020;-65
2023/08/20 03:07:16;;;;;;;8.25;3.72;;;;;;;18.46;94.09;101998.28;5111051;28;20035;-65
2023/08/20 03:09:41;;;;;;;10.93;4.15;;;;;;;18.32;94.28;101996.66;5112227;28;20028;-66
2023/08/20 03:12:07;;;;;;;7.57;4.05;;;;;;;18.21;94.55;102004.75;5112571;28;20562;-65
2023/08/20 03:14:32;;;;;;;9.15;4.20;;;;;;;18.23;94.77;101998.22;5112450;28;20019;-65
2023/08/20 03:16:57;;;;;;;6.82;3.65;;;;;;;18.10;94.96;102001.00;5112657;28;20028;-65
2023/08/20 03:19:23;;;;;;;8.45;4.03;;;;;;;18.13;94.98;101999.94;5112819;28;20443;-65
2023/08/20 03:21:48;;;;;;;5.80;3.67;;;;;;;18.15;94.80;102000.69;5111219;28;20027;-65
2023/08/20 03:24:14;;;;;;;6.70;4.03;;;;;;;17.96;95.10;101989.59;5111980;28;20020;-65
2023/08/20 03:26:39;;;;;;;6.78;3.67;;;;;;;18.02;95.10;102000.75;5112414;28;20071;-65
2023/08/20 03:29:04;;;;;;;8.77;3.92;;;;;;;17.89;96.26;102000.81;5111181;28;20054;-65
2023/08/20 03:31:30;;;;;;;6.55;3.95;;;;;;;17.89;95.75;101983.81;5111024;28;20118;-65
2023/08/20 03:33:55;;;;;;;5.38;4.00;;;;;;;17.89;96.37;101995.44;5112274;28;20043;-65
2023/08/20 03:36:21;;;;;;;6.07;3.72;;;;;;;17.94;95.83;102003.16;5111095;28;20027;-66
2023/08/20 03:38:46;;;;;;;7.10;3.75;;;;;;;17.82;96.21;101991.47;5110659;28;20466;-65
2023/08/20 03:41:14;;;;;;;9.20;3.85;;;;;;;17.85;95.58;101999.34;5110903;28;20138;-65
2023/08/20 03:43:39;;;;;;;6.65;4.65;;;;;;;17.84;96.29;101997.59;5111011;28;20027;-65
2023/08/20 03:46:05;;;;;;;10.05;3.90;;;;;;;17.84;96.39;101991.38;5110980;28;20031;-65
2023/08/20 03:48:30;;;;;;;8.77;3.55;;;;;;;17.85;96.00;101993.97;5110683;28;20028;-65
2023/08/20 03:50:56;;;;;;;7.35;3.63;;;;;;;17.78;95.95;102003.47;5112340;28;20106;-65
2023/08/20 03:53:21;;;;;;;7.85;4.60;;;;;;;17.76;96.11;102002.66;5112180;28;20462;-65
2023/08/20 03:55:50;;;;;;;5.78;3.95;;;;;;;17.64;96.18;102011.66;5111377;28;20127;-65
2023/08/20 03:58:16;;;;;;;6.88;3.75;;;;;;;17.60;96.34;102012.88;5112172;28;20027;-66
2023/08/20 04:00:42;;;;;;;7.88;3.95;;;;;;;17.51;96.39;102005.50;5112161;28;20481;-66
2023/08/20 04:03:10;;;;;;;6.18;3.95;;;;;;;17.47;96.71;102005.72;5112175;28;20031;-66
2023/08/20 04:05:38;;;;;;;8.23;4.03;;;;;;;17.55;96.31;102015.03;5110786;28;20157;-65
2023/08/20 04:08:04;;;;;;;8.10;4.32;;;;;;;17.51;96.50;102022.50;5112086;28;20073;-65
2023/08/20 04:10:31;;;;;;;7.18;4.38;;;;;;;17.51;96.40;102017.09;5110114;28;20140;-65
2023/08/20 04:12:56;;;;;;;8.18;4.13;;;;;;;17.52;96.45;102020.66;5112151;28;20031;-66
2023/08/20 04:15:21;;;;;;;8.57;4.18;;;;;;;17.35;97.30;102020.03;5111733;28;20023;-65
2023/08/20 04:17:48;;;;;;;13.05;4.68;;;;;;;17.27;98.33;102018.91;5110785;28;20020;-66
2023/08/20 04:20:14;;;;;;;8.65;4.60;;;;;;;17.24;97.63;102020.00;5113414;28;20019;-65
2023/08/20 04:22:40;;;;;;;8.45;4.82;;;;;;;17.35;97.54;102025.41;5114881;28;20500;-66
2023/08/20 04:25:06;;;;;;;10.65;4.72;;;;;;;17.37;97.46;102028.88;5113715;28;20054;-65
2023/08/20 04:27:32;;;;;;;7.65;4.85;;;;;;;17.22;97.18;102020.09;5115544;28;20092;-65
2023/08/20 04:29:57;;;;;;;7.78;4.43;;;;;;;17.15;97.20;102026.03;5115384;28;20027;-66
2023/08/20 04:32:23;;;;;;;7.38;4.15;;;;;;;17.29;97.05;102027.72;5115509;28;20024;-65
2023/08/20 04:34:49;;;;;;;8.15;4.60;;;;;;;17.25;97.01;102036.00;5113984;28;20024;-65
2023/08/20 04:37:15;;;;;;;10.38;4.65;;;;;;;17.30;97.16;102040.19;5114113;28;20051;-65
2023/08/20 04:39:40;;;;;;;10.75;4.50;;;;;;;17.29;96.80;102047.38;5115107;28;20055;-65
2023/08/20 04:42:06;;;;;;;10.88;5.00;;;;;;;17.25;97.05;102046.75;5114412;28;20073;-65
2023/08/20 04:44:31;;;;;;;13.45;5.05;;;;;;;17.28;97.04;102042.13;5115094;28;20035;-65
2023/08/20 04:46:57;;;;;;;8.35;4.45;;;;;;;17.22;97.94;102033.53;5115463;28;20362;-65
2023/08/20 04:49:22;;;;;;;7.82;4.80;;;;;;;17.19;97.76;102040.97;5113767;28;20049;-65
2023/08/20 04:51:48;;;;;;;7.47;4.80;;;;;;;17.30;97.47;102042.88;5115189;28;20474;-65
2023/08/20 04:54:13;;;;;;;9.25;5.35;;;;;;;17.28;97.00;102042.97;5113310;28;20023;-65
2023/08/20 04:56:38;;;;;;;9.40;5.20;;;;;;;17.29;96.80;102041.16;5115295;28;20035;-65
2023/08/20 04:59:04;;;;;;;9.88;4.82;;;;;;;17.30;97.32;102042.88;5115011;28;20022;-65
2023/08/20 05:01:29;;;;;;;9.60;5.28;;;;;;;17.32;97.47;102051.69;5114963;28;20450;-65
2023/08/20 05:03:55;;;;;;;8.25;5.45;;;;;;;17.32;97.35;102043.63;5113595;28;20437;-65
2023/08/20 05:06:20;;;;;;;6.68;4.65;;;;;;;17.26;97.44;102044.91;5114592;28;20034;-66
2023/08/20 05:08:45;;;;;;;10.50;4.95;;;;;;;17.26;97.51;102044.91;5113112;28;20157;-65
2023/08/20 05:11:11;;;;;;;7.25;4.80;;;;;;;17.27;97.94;102051.19;5114838;28;20023;-65
2023/08/20 05:13:38;;;;;;;9.07;5.22;;;;;;;17.23;98.22;102042.44;5113552;28;20103;-65
2023/08/20 05:16:04;;;;;;;9.50;6.18;;;;;;;17.21;98.42;102050.66;5114609;28;20481;-66
2023/08/20 05:18:29;;;;;;;7.85;5.00;;;;;;;17.31;98.63;102052.66;5113194;28;20054;-66
2023/08/20 05:20:57;;;;;;;7.70;5.00;;;;;;;17.27;98.70;102043.97;5114370;28;20060;-66
2023/08/20 05:23:22;;;;;;;9.50;4.82;;;;;;;17.36;98.70;102051.38;5114635;28;20023;-66
2023/08/20 05:25:47;;;;;;;8.00;5.13;;;;;;;17.32;99.04;102055.22;5114010;28;20059;-66
2023/08/20 05:28:13;;;;;;;5.93;4.60;;;;;;;17.32;99.21;102054.38;5114488;28;20026;-66
2023/08/20 05:30:38;;;;;;;10.20;4.68;;;;;;;17.32;99.20;102052.53;5114073;28;20031;-66
2023/08/20 05:33:04;;;;;;;7.00;5.15;;;;;;;17.42;99.55;102066.19;5112960;28;20045;-66
2023/08/20 05:35:29;;;;;;;9.02;5.80;;;;;;;17.36;100.00;102067.50;5112625;28;20058;-66
2023/08/20 05:37:55;;;;;;;8.93;4.93;;;;;;;17.47;100.00;102061.31;5112875;28;20058;-65
2023/08/20 05:40:20;;;;;;;7.72;5.05;;;;;;;17.53;99.85;102062.72;5113526;28;20055;-66
2023/08/20 05:42:46;;;;;;;9.98;5.22;;;;;;;17.48;100.00;102055.00;5114193;28;20020;-65
2023/08/20 05:45:11;;;;;;;8.38;5.30;;;;;;;17.60;99.62;102055.94;5112458;28;20027;-65
2023/08/20 05:47:36;;;;;;;10.38;6.20;;;;;;;17.58;100.00;102060.56;5114223;28;20495;-65
2023/08/20 05:50:05;;;;;;;10.73;6.28;;;;;;;17.65;100.00;102065.38;5112274;28;20067;-65
2023/08/20 05:52:30;;;;;;;11.48;6.18;;;;;;;17.79;100.00;102067.06;5112568;28;20084;-65
2023/08/20 05:54:55;;;;;;;11.45;6.63;;;;;;;17.80;100.00;102063.41;5111875;28;20031;-65
2023/08/20 05:57:21;;;;;;;8.00;6.18;;;;;;;17.86;100.00;102065.66;5113727;28;20092;-65
2023/08/20 05:59:46;;;;;;;9.77;6.55;;;;;;;17.86;100.00;102056.72;5113563;28;20110;-65
2023/08/20 06:02:17;;;;;;;13.10;6.38;;;;;;;17.90;100.00;102060.88;5113883;28;20024;-65
2023/08/20 06:04:43;;;;;;;10.40;6.00;;;;;;;17.91;99.62;102065.28;5113266;28;20427;-65
2023/08/20 06:07:09;;;;;;;14.15;6.40;;;;;;;18.05;99.59;102065.13;5113994;28;20030;-65
2023/08/20 06:09:34;;;;;;;12.23;6.50;;;;;;;17.99;99.52;102052.13;5112851;28;20032;-65
2023/08/20 06:12:02;;;;;;;10.60;6.05;;;;;;;18.10;99.53;102049.47;5112294;28;20046;-65
2023/08/20 06:14:28;;;;;;;11.98;7.07;;;;;;;18.23;98.62;102062.88;5113469;28;20417;-65
2023/08/20 06:16:53;;;;;;;12.70;6.15;;;;;;;18.24;99.22;102056.53;5113474;28;20023;-65
2023/08/20 06:19:18;;;;;;;11.73;5.80;;;;;;;18.34;98.47;102064.75;5113060;28;20023;-65
2023/08/20 06:21:46;;;;;;;9.63;5.60;;;;;;;18.36;98.97;102062.81;5112219;28;20058;-65
2023/08/20 06:24:16;;;;;;;12.57;5.63;;;;;;;18.50;99.06;102070.69;5111354;28;20023;-65
2023/08/20 06:26:44;;;;;;;12.98;5.03;;;;;;;18.63;98.16;102069.75;5111678;28;20078;-65
2023/08/20 06:29:09;;;;;;;12.88;5.95;;;;;;;18.69;97.16;102067.41;5113469;28;20143;-65
2023/08/20 06:31:36;;;;;;;10.80;5.32;;;;;;;18.84;96.47;102063.53;5113325;28;20537;-65
2023/08/20 06:34:03;;;;;;;10.93;5.70;;;;;;;18.78;96.91;102066.72;5112782;28;20023;-65
2023/08/20 06:36:28;;;;;;;12.45;5.57;;;;;;;18.91;96.06;102072.00;5111660;28;20016;-65
2023/08/20 06:38:53;;;;;;;11.57;5.43;;;;;;;18.98;95.29;102070.56;5112696;28;20032;-66
2023/08/20 06:41:19;;;;;;;16.25;6.38;;;;;;;19.14;94.57;102075.56;5111608;28;20099;-65
2023/08/20 06:43:44;;;;;;;16.67;6.47;;;;;;;19.22;92.82;102074.97;5110794;28;20077;-66
2023/08/20 06:46:09;;;;;;;17.52;7.47;;;;;;;19.25;92.55;102062.09;5113271;28;20382;-65
2023/08/20 06:48:35;;;;;;;18.17;6.45;;;;;;;19.46;92.63;102069.44;5112533;28;20020;-65
2023/08/20 06:51:20;;;;;;;12.00;6.40;;;;;;;19.55;91.57;102087.56;5111659;28;20027;-65
2023/08/20 06:53:45;;;;;;;16.30;6.30;;;;;;;19.63;90.45;102079.72;5111110;28;20430;-65
2023/08/20 06:56:11;;;;;;;18.40;6.65;;;;;;;19.72;89.66;102070.03;5112730;28;20055;-65
2023/08/20 06:58:41;;;;;;;13.27;6.82;;;;;;;19.85;88.69;102076.13;5112981;28;20394;-65
2023/08/20 07:01:08;;;;;;;17.40;6.30;;;;;;;19.96;88.76;102078.78;5113118;28;20420;-65
2023/08/20 07:03:43;;;;;;;18.38;6.68;;;;;;;20.16;87.10;102078.97;5094321;28;20019;-65
2023/08/20 07:06:10;;;;;;;12.00;5.95;;;;;;;20.16;85.65;102078.97;5112882;28;20474;-65
2023/08/20 07:08:36;;;;;;;12.65;7.10;;;;;;;20.20;83.42;102081.28;5112112;28;20023;-66
2023/08/20 07:11:02;;;;;;;11.68;5.80;;;;;;;20.26;81.07;102082.59;5111540;28;20084;-65
2023/08/20 07:13:28;;;;;;;13.00;6.28;;;;;;;20.43;82.40;102094.69;5112548;28;20103;-66
2023/08/20 07:15:54;;;;;;;14.85;6.65;;;;;;;20.62;81.96;102097.56;5111181;28;20027;-66
2023/08/20 07:18:20;;;;;;;13.10;6.35;;;;;;;20.63;80.76;102090.31;5112476;28;20027;-65
2023/08/20 07:20:45;;;;;;;12.85;5.93;;;;;;;20.69;81.24;102086.22;5111364;28;20029;-66
2023/08/20 07:23:11;;;;;;;13.80;6.25;;;;;;;20.78;81.72;102089.00;5112504;28;20110;-65
2023/08/20 07:25:37;;;;;;;13.77;6.38;;;;;;;20.87;78.56;102090.88;5111871;28;20077;-66
2023/08/20 07:28:04;;;;;;;12.35;5.57;;;;;;;21.02;78.76;102104.91;5112500;28;20062;-65
2023/08/20 07:30:30;;;;;;;13.82;6.13;;;;;;;21.00;78.15;102096.09;5111068;28;20482;-65
2023/08/20 07:32:55;;;;;;;16.35;6.25;;;;;;;20.97;78.29;102096.38;5111127;28;20022;-66
2023/08/20 07:35:21;;;;;;;12.60;5.75;;;;;;;21.15;76.48;102098.44;5110879;28;20473;-65
2023/08/20 07:37:47;;;;;;;10.77;5.57;;;;;;;21.24;77.49;102097.66;5110941;28;20030;-65
2023/08/20 07:40:14;;;;;;;10.07;4.78;;;;;;;21.21;77.27;102090.66;5111737;28;20059;-65
2023/08/20 07:42:40;;;;;;;11.50;5.88;;;;;;;21.36;77.09;102104.69;5112450;28;20239;-65
2023/08/20 07:45:07;;;;;;;12.90;5.10;;;;;;;21.41;77.50;102099.72;5112283;28;20015;-65
2023/08/20 07:47:33;;;;;;;9.65;4.85;;;;;;;21.53;75.58;102100.47;5112176;28;20039;-65
2023/08/20 07:49:58;;;;;;;8.00;4.47;;;;;;;21.66;74.42;102111.06;5112172;28;20023;-65
2023/08/20 07:52:23;;;;;;;9.60;4.50;;;;;;;21.69;73.83;102111.63;5112216;28;20031;-65
2023/08/20 07:54:51;;;;;;;10.80;4.57;;;;;;;21.74;73.46;102112.09;5114325;28;20462;-66
2023/08/20 07:57:16;;;;;;;12.98;4.45;;;;;;;21.97;71.56;102111.81;5116318;27;20024;-66
2023/08/20 07:59:44;;;;;;;9.95;3.97;;;;;;;22.03;72.11;102116.72;5114895;28;20068;-66
2023/08/20 08:02:10;;;;;;;9.07;4.75;;;;;;;22.19;71.84;102113.47;5116225;28;20023;-66
2023/08/20 08:04:35;;;;;;;7.78;4.18;;;;;;;22.27;70.64;102113.63;5116126;28;20102;-65
2023/08/20 08:07:01;;;;;;;10.82;4.80;;;;;;;22.42;69.32;102116.75;5116030;28;20474;-66
2023/08/20 08:09:28;;;;;;;7.18;3.90;;;;;;;22.44;70.91;102115.63;5115785;28;20137;-66
2023/08/20 08:11:53;;;;;;;9.70;4.80;;;;;;;22.57;70.08;102126.16;5114859;28;20031;-66
2023/08/20 08:14:19;;;;;;;6.65;3.92;;;;;;;22.66;69.45;102125.28;5115832;28;20027;-66
2023/08/20 08:16:46;;;;;;;9.02;3.85;;;;;;;22.73;69.28;102114.72;5114240;28;20116;-66
2023/08/20 08:19:12;;;;;;;6.05;2.90;;;;;;;22.95;67.63;102129.84;5115701;28;20607;-66
2023/08/20 08:21:38;;;;;;;9.82;3.58;;;;;;;23.08;65.59;102129.53;5114639;28;20106;-66
2023/08/20 08:24:04;;;;;;;6.97;4.00;;;;;;;23.10;66.01;102125.66;5115324;28;20102;-66
2023/08/20 08:26:30;;;;;;;8.52;4.20;;;;;;;23.22;66.55;102136.34;5115419;28;20088;-66
2023/08/20 08:28:58;;;;;;;11.40;4.35;;;;;;;23.30;66.49;102128.31;5114359;28;20039;-66
2023/08/20 08:31:23;;;;;;;8.85;3.70;;;;;;;23.45;65.11;102126.81;5114213;28;20107;-66
2023/08/20 08:33:49;;;;;;;9.30;4.10;;;;;;;23.41;66.07;102121.81;5115536;28;20164;-66
2023/08/20 08:36:16;;;;;;;9.40;4.18;;;;;;;23.57;63.83;102131.03;5115361;28;20100;-65
2023/08/20 08:38:42;;;;;;;7.32;3.40;;;;;;;23.57;65.58;102122.03;5113638;28;20023;-65
2023/08/20 08:41:11;;;;;;;7.22;3.80;;;;;;;23.87;65.00;102129.03;5114549;28;20024;-65
2023/08/20 08:43:38;;;;;;;6.07;2.70;;;;;;;24.01;61.55;102138.56;5114219;28;20020;-66
2023/08/20 08:46:07;;;;;;;6.18;2.63;;;;;;;24.03;58.42;102134.69;5113853;28;20027;-65
2023/08/20 08:48:36;;;;;;;4.68;2.40;;;;;;;24.31;57.03;102137.31;5114852;28;20032;-65
2023/08/20 08:51:02;;;;;;;4.72;2.60;;;;;;;24.44;57.60;102136.94;5115257;28;20020;-66
2023/08/20 08:53:27;;;;;;;6.43;2.60;;;;;;;24.42;57.89;102133.53;5115210;28;20516;-65
2023/08/20 08:55:53;;;;;;;6.57;3.00;;;;;;;24.50;59.20;102135.47;5114685;27;20031;-65
2023/08/20 08:58:18;;;;;;;6.75;2.60;;;;;;;24.51;57.94;102140.78;5114976;28;20464;-65
2023/08/20 09:00:43;;;;;;;5.65;2.72;;;;;;;24.62;58.03;102129.66;5115029;28;20019;-65
2023/08/20 09:03:09;;;;;;;4.78;2.70;;;;;;;24.72;59.41;102139.59;5113764;28;20458;-65
2023/08/20 09:05:46;;;;;;;5.50;2.88;;;;;;;24.83;58.22;102142.06;5114138;28;20103;-65
2023/08/20 09:08:19;;;;;;;5.70;2.20;;;;;;;24.89;57.62;102149.59;5114909;28;20020;-65
2023/08/20 09:10:45;;;;;;;5.65;2.78;;;;;;;25.02;56.40;102146.44;5114550;28;20059;-66
2023/08/20 09:13:10;;;;;;;7.47;3.15;;;;;;;24.96;54.50;102144.34;5113363;28;20466;-65
2023/08/20 09:15:36;;;;;;;5.45;2.58;;;;;;;24.83;58.58;102134.75;5114748;28;20073;-66
2023/08/20 09:18:03;;;;;;;4.75;2.40;;;;;;;25.19;54.50;102137.38;5114848;28;20024;-66
2023/08/20 09:20:36;;;;;;;6.25;2.60;;;;;;;25.34;55.49;102148.53;5114493;28;20390;-66
2023/08/20 09:23:01;;;;;;;5.88;2.40;;;;;;;25.41;53.44;102146.00;5113324;28;20080;-65
2023/08/20 09:25:26;;;;;;;5.68;2.97;;;;;;;25.60;53.31;102138.44;5095708;28;20376;-66
2023/08/20 09:27:54;;;;;;;5.82;2.55;;;;;;;25.48;52.58;102147.91;5113000;28;20083;-66
2023/08/20 09:30:22;;;;;;;4.90;2.38;;;;;;;25.79;52.59;102147.34;5113041;28;20049;-66
2023/08/20 09:33:13;;;;;;;5.93;2.40;;;;;;;25.87;53.62;102154.75;5113283;28;20391;-66
2023/08/20 09:35:38;;;;;;;5.72;2.63;;;;;;;25.86;51.83;102134.81;5114339;28;20027;-66
2023/08/20 09:38:04;;;;;;;6.13;2.38;;;;;;;26.02;51.88;102153.09;5112987;28;20031;-66
2023/08/20 09:40:30;;;;;;;3.83;2.03;;;;;;;25.94;51.57;102148.47;5113678;28;20087;-66
2023/08/20 09:42:59;;;;;;;5.25;2.13;;;;;;;26.04;49.99;102149.16;5114053;28;20474;-66
2023/08/20 09:45:25;;;;;;;;;;;;;;;26.44;51.98;102150.25;5113291;28;20110;-66
2023/08/20 09:47:55;;;;;;;3.95;1.98;;;;;;;26.20;51.80;102155.66;5114109;28;19908;-66
2023/08/20 09:50:23;;;;;;;4.50;2.17;;;;;;;26.32;50.21;102158.94;5112544;28;20023;-66
2023/08/20 09:53:03;;;;;;;3.00;1.75;;;;;;;26.37;48.11;102153.84;5112925;28;20480;-66
2023/08/20 09:55:36;;;;;;;4.80;1.92;;;;;;;26.30;49.80;102148.19;5113383;28;20030;-66
2023/08/20 09:58:03;;;;;;;2.05;1.30;;;;;;;26.41;44.62;102157.91;5112382;28;20019;-66
2023/08/20 10:00:28;;;;;;;2.65;1.50;;;;;;;26.69;45.48;102151.13;5113887;28;20015;-66
2023/08/20 10:02:56;;;;;;;2.55;1.42;;;;;;;26.76;48.02;102143.09;5112549;28;20031;-66
2023/08/20 10:05:23;;;;;;;3.30;1.90;;;;;;;26.98;46.09;102157.94;5112292;28;20019;-66
2023/08/20 10:07:52;;;;;;;3.10;1.60;;;;;;;27.07;46.90;102145.97;5113552;28;20142;-66
2023/08/20 10:10:18;;;;;;;5.35;1.60;;;;;;;27.25;45.63;102145.78;5111788;28;20028;-66
2023/08/20 10:12:44;;;;;;;5.32;1.67;;;;;;;27.22;45.58;102143.41;5112197;28;20033;-66
2023/08/20 10:15:12;;;;;;;4.13;2.33;;;;;;;27.39;46.40;102146.97;5112242;28;20106;-66
2023/08/20 10:17:40;;;;;;;4.30;1.50;;;;;;;27.51;46.53;102147.44;5112368;28;20049;-66
2023/08/20 10:20:07;;;;;;;4.88;1.90;;;;;;;27.66;43.78;102145.66;5112394;28;20047;-66
2023/08/20 10:22:38;;;;;;;3.03;1.50;;;;;;;27.63;45.20;102149.59;5113495;28;20105;-66
2023/08/20 10:25:08;;;;;;;5.28;1.65;;;;;;;27.91;42.72;102134.59;5112801;28;20504;-66
2023/08/20 10:27:36;;;;;;;3.35;1.52;;;;;;;27.92;43.67;102131.72;5112922;28;20457;-66
2023/08/20 10:30:11;;;;;;;2.72;1.58;;;;;;;28.37;40.15;102135.50;5113348;28;20020;-66
2023/08/20 10:32:53;;;;;;;7.90;2.08;;;;;;;28.33;44.19;102150.59;5113474;28;20046;-66
2023/08/20 10:35:23;;;;;;;4.43;1.40;;;;;;;28.43;41.83;102142.16;5113187;28;20024;-66
2023/08/20 10:38:06;;;;;;;2.80;1.35;;;;;;;28.47;44.76;102140.75;5113335;28;20428;-67
2023/08/20 10:40:55;;;;;;;3.97;1.70;;;;;;;28.73;43.98;102141.19;5112388;28;20024;-66
2023/08/20 10:43:45;;;;;;;5.35;1.67;;;;;;;28.76;43.35;102131.75;5113102;28;20032;-66
2023/08/20 10:46:19;;;;;;;2.55;1.45;;;;;;;28.87;42.45;102134.06;5111873;28;20038;-66
2023/08/20 10:48:53;;;;;;;2.58;1.30;;;;;;;28.82;40.66;102141.97;5112811;28;20160;-66
2023/08/20 10:51:18;;;;;;;4.43;1.50;;;;;;;28.93;39.71;102137.94;5113093;28;20023;-66
2023/08/20 10:54:08;;;;;;;2.92;1.60;;;;;;;29.10;41.21;102135.91;5111079;28;20023;-66
2023/08/20 10:56:51;;;;;;;2.38;1.50;;;;;;;29.28;39.90;102136.38;5112498;28;20457;-67
2023/08/20 10:59:26;;;;;;;3.30;1.50;;;;;;;29.41;39.70;102143.94;5112632;28;20481;-66
2023/08/20 11:01:57;;;;;;;3.97;1.35;;;;;;;29.37;39.15;102143.47;5111483;28;20062;-66
2023/08/20 11:04:26;;;;;;;3.28;1.35;;;;;;;29.74;38.49;102141.69;5112673;28;20024;-67
2023/08/20 11:06:56;;;;;;;2.72;1.30;;;;;;;29.82;36.49;102149.78;5112874;27;20493;-67
2023/08/20 11:09:23;;;;;;;4.10;1.63;;;;;;;29.96;38.22;102139.81;5111884;28;20034;-67
2023/08/20 11:11:48;;;;;;;3.65;1.60;;;;;;;29.89;37.79;102133.41;5112639;28;20027;-67
2023/08/20 11:14:15;;;;;;;2.42;1.25;;;;;;;29.95;37.06;102131.78;5112434;28;20447;-67
2023/08/20 11:16:41;;;;;;;3.67;1.48;;;;;;;29.95;36.73;102132.63;5112344;28;20027;-67
2023/08/20 11:19:10;;;;;;;3.42;1.80;;;;;;;29.95;37.51;102138.13;5112508;28;20137;-67
2023/08/20 11:21:37;;;;;;;2.65;1.15;;;;;;;30.09;38.58;102137.22;5112451;28;20474;-67